KAAF/AAF METAR and TAF weather

Enter ICAO airport designator
Station Type Date Time Source
KAAF METAR 2020/07/12 17:53 UTC NOAA

KAAF 121753Z AUTO 34009KT 10SM CLR 34/19 A2990 RMK AO2 SLP123 T03390189 10344 20239 56005 TSNO


Station Type Date Time Source
KAAF Decoded METAR 2020/07/12 17:53 UTC NOAA

APALACHICOLA MUNICIPAL AIRPORT, FL, United States (KAAF) 29-44N 085-01W 5M
Jul 12, 2020 - 01:53 PM EDT / 2020.07.12 1753 UTC
Wind: from the NNW (340 degrees) at 10 MPH (9 KT):0
Visibility: 10 mile(s):0
Sky conditions: clear
Temperature: 93.0 F (33.9 C)
Heat index: 95.9 F (35.5 C):1
Dew Point: 66.0 F (18.9 C)
Relative Humidity: 41%
Pressure (altimeter): 29.9 in. Hg (1012 hPa)
Pressure tendency: 0.01 inches (0.5 hPa) lower than three hours ago
ob: KAAF 121753Z AUTO 34009KT 10SM CLR 34/19 A2990 RMK AO2 SLP123 T03390189 10344 20239 56005 TSNO
cycle: 18

Station Type Date Time Source
KAAF TAF UTC NOAA

Error!

Example: see airport list